createdAt,value
2022-12-17T00:02:29.225Z,-4.93
2022-12-17T00:05:15.037Z,-5.32
2022-12-17T00:08:00.452Z,-5.40
2022-12-17T00:10:45.751Z,-5.40
2022-12-17T00:13:40.605Z,-5.52
2022-12-17T00:16:29.927Z,-5.53
2022-12-17T00:19:15.640Z,-4.47
2022-12-17T00:22:02.233Z,-5.25
2022-12-17T00:24:47.736Z,-5.65
2022-12-17T00:27:33.152Z,-6.02
2022-12-17T00:30:18.764Z,-5.90
2022-12-17T00:33:05.584Z,-5.81
2022-12-17T00:35:51.151Z,-5.77
2022-12-17T00:38:36.881Z,-5.81
2022-12-17T00:41:23.101Z,-5.91
2022-12-17T00:44:08.734Z,-5.96
2022-12-17T00:46:54.873Z,-6.18
2022-12-17T00:49:42.671Z,-6.13
2022-12-17T00:52:28.198Z,-6.18
2022-12-17T00:55:13.892Z,-6.21
2022-12-17T00:57:59.689Z,-6.29
2022-12-17T01:00:45.331Z,-6.26
2022-12-17T01:03:31.269Z,-6.21
2022-12-17T01:06:21.568Z,-6.02
2022-12-17T01:09:07.331Z,-5.73
2022-12-17T01:11:56.638Z,-5.43
2022-12-17T01:14:42.802Z,-5.59
2022-12-17T01:17:28.243Z,-5.67
2022-12-17T01:20:14.084Z,-5.84
2022-12-17T01:23:01.276Z,-6.05
2022-12-17T01:25:46.940Z,-5.90
2022-12-17T01:28:32.737Z,-6.00
2022-12-17T01:31:18.553Z,-6.57
2022-12-17T01:34:05.230Z,-6.54
2022-12-17T01:36:50.759Z,-6.55
2022-12-17T01:39:46.818Z,-6.47
2022-12-17T01:42:34.637Z,-6.65
2022-12-17T01:45:20.908Z,-7.13
2022-12-17T01:48:08.634Z,-7.12
2022-12-17T01:50:56.823Z,-7.25
2022-12-17T01:53:44.428Z,-7.27
2022-12-17T01:56:34.237Z,-7.32
2022-12-17T01:59:21.389Z,-7.46
2022-12-17T02:02:03.446Z,-7.56
2022-12-17T02:04:50.073Z,-7.50
2022-12-17T02:07:43.359Z,-7.21
2022-12-17T02:10:34.972Z,-7.61
2022-12-17T02:13:40.657Z,-7.10
2022-12-17T02:16:32.771Z,-7.21
2022-12-17T02:19:23.327Z,-7.45
2022-12-17T02:22:12.404Z,-7.55
2022-12-17T02:25:05.967Z,-7.81
2022-12-17T02:27:56.217Z,-7.48
2022-12-17T02:30:43.019Z,-7.59
2022-12-17T02:33:29.089Z,-7.50
2022-12-17T02:36:20.160Z,-7.38
2022-12-17T02:39:08.448Z,-7.54
2022-12-17T02:42:03.363Z,-7.50
2022-12-17T02:44:53.182Z,-7.56
2022-12-17T02:47:39.521Z,-7.51
2022-12-17T02:50:26.636Z,-7.12
2022-12-17T02:53:12.918Z,-7.32
2022-12-17T02:55:58.841Z,-7.02
2022-12-17T02:58:45.592Z,-6.99
2022-12-17T03:01:35.224Z,-6.81
2022-12-17T03:04:22.882Z,-6.73
2022-12-17T03:07:08.886Z,-6.75
2022-12-17T03:09:59.813Z,-6.69
2022-12-17T03:12:51.087Z,-6.70
2022-12-17T03:15:33.031Z,-6.74
2022-12-17T03:18:20.049Z,-6.77
2022-12-17T03:21:10.766Z,-6.54
2022-12-17T03:23:56.440Z,-6.47
2022-12-17T03:26:44.282Z,-6.69
2022-12-17T03:29:29.751Z,-6.49
2022-12-17T03:32:15.347Z,-6.73
2022-12-17T03:35:02.344Z,-6.67
2022-12-17T03:37:48.001Z,-6.67
2022-12-17T03:40:34.073Z,-6.58
2022-12-17T03:43:23.797Z,-6.68
2022-12-17T03:46:12.639Z,-6.60
2022-12-17T03:48:58.346Z,-6.44
2022-12-17T03:51:45.246Z,-6.38
2022-12-17T03:54:30.550Z,-6.20
2022-12-17T03:57:16.617Z,-6.27
2022-12-17T04:00:04.492Z,-6.13
2022-12-17T04:03:09.040Z,-6.09
2022-12-17T04:05:54.760Z,-5.75
2022-12-17T04:08:41.461Z,-5.86
2022-12-17T04:11:27.171Z,-5.34
2022-12-17T04:14:12.939Z,-5.34
2022-12-17T04:16:58.760Z,-5.74
2022-12-17T04:19:44.390Z,-5.87
2022-12-17T04:22:32.218Z,-5.96
2022-12-17T04:25:19.258Z,-6.09
2022-12-17T04:28:04.925Z,-6.23
2022-12-17T04:30:50.533Z,-6.16
2022-12-17T04:33:36.526Z,-5.84
2022-12-17T04:36:22.357Z,-5.62
2022-12-17T04:39:15.590Z,-5.73
2022-12-17T04:42:02.334Z,-5.71
2022-12-17T04:44:47.700Z,-5.73
2022-12-17T04:47:33.168Z,-5.64
2022-12-17T04:50:29.983Z,-5.57
2022-12-17T04:53:18.403Z,-5.38
2022-12-17T04:56:06.651Z,-5.57
2022-12-17T04:58:56.251Z,-5.76
2022-12-17T05:01:41.805Z,-5.67
2022-12-17T05:04:27.472Z,-5.90
2022-12-17T05:07:12.925Z,-5.89
2022-12-17T05:09:58.611Z,-5.81
2022-12-17T05:12:44.239Z,-5.68
2022-12-17T05:15:31.186Z,-6.11
2022-12-17T05:18:23.089Z,-5.86
2022-12-17T05:21:10.925Z,-5.93
2022-12-17T05:23:56.803Z,-5.80
2022-12-17T05:26:43.909Z,-5.95
2022-12-17T05:29:30.007Z,-5.79
2022-12-17T05:32:17.198Z,-6.00
2022-12-17T05:35:02.745Z,-6.16
2022-12-17T05:37:48.060Z,-5.82
2022-12-17T05:40:34.245Z,-6.02
2022-12-17T05:43:23.343Z,-5.71
2022-12-17T05:46:09.064Z,-5.94
2022-12-17T05:48:56.204Z,-5.97
2022-12-17T05:51:41.895Z,-6.20
2022-12-17T05:54:29.493Z,-5.87
2022-12-17T05:57:15.171Z,-6.15
2022-12-17T06:00:00.747Z,-6.21
2022-12-17T06:02:46.199Z,-6.06
2022-12-17T06:05:33.343Z,-6.06
2022-12-17T06:08:23.226Z,-6.14
2022-12-17T06:11:08.564Z,-5.93
2022-12-17T06:13:54.161Z,-6.02
2022-12-17T06:16:39.844Z,-6.27
2022-12-17T06:19:25.351Z,-6.06
2022-12-17T06:22:12.519Z,-6.15
2022-12-17T06:24:57.845Z,-6.35
2022-12-17T06:27:43.588Z,-6.39
2022-12-17T06:30:38.396Z,-6.39
2022-12-17T06:33:24.556Z,-6.54
2022-12-17T06:36:10.668Z,-6.15
2022-12-17T06:38:56.787Z,-6.60
2022-12-17T06:41:42.367Z,-6.61
2022-12-17T06:44:30.505Z,-6.38
2022-12-17T06:47:16.106Z,-6.57
2022-12-17T06:50:16.790Z,-6.28
2022-12-17T06:53:02.225Z,-6.42
2022-12-17T06:55:48.958Z,-6.50
2022-12-17T06:58:34.294Z,-6.49
2022-12-17T07:01:19.849Z,-6.47
2022-12-17T07:04:07.402Z,-6.43
2022-12-17T07:06:55.938Z,-6.34
2022-12-17T07:09:41.633Z,-6.27
2022-12-17T07:12:30.898Z,-6.44
2022-12-17T07:15:21.816Z,-6.21
2022-12-17T07:18:12.797Z,-6.31
2022-12-17T07:21:12.002Z,-5.90
2022-12-17T07:23:57.577Z,-5.51
2022-12-17T07:26:45.800Z,-5.68
2022-12-17T07:29:32.505Z,-5.76
2022-12-17T07:32:18.075Z,-6.14
2022-12-17T07:35:03.817Z,-5.85
2022-12-17T07:37:49.348Z,-5.84
2022-12-17T07:40:34.996Z,-5.98
2022-12-17T07:43:20.470Z,-6.07
2022-12-17T07:46:03.846Z,-6.26
2022-12-17T07:48:49.290Z,-5.93
2022-12-17T07:51:35.047Z,-6.14
2022-12-17T07:54:32.083Z,-6.18
2022-12-17T07:57:17.835Z,-6.14
2022-12-17T08:00:05.906Z,-6.11
2022-12-17T08:02:53.033Z,-5.63
2022-12-17T08:05:38.774Z,-5.48
2022-12-17T08:08:27.257Z,-5.63
2022-12-17T08:11:12.855Z,-5.74
2022-12-17T08:13:58.337Z,-5.70
2022-12-17T08:16:44.089Z,-5.47
2022-12-17T08:19:31.138Z,-6.01
2022-12-17T08:22:16.664Z,-5.41
2022-12-17T08:25:02.069Z,-5.66
2022-12-17T08:27:47.872Z,-5.19
2022-12-17T08:30:35.930Z,-5.06
2022-12-17T08:33:22.130Z,-5.43
2022-12-17T08:36:12.023Z,-5.49
2022-12-17T08:38:57.748Z,-5.34
2022-12-17T08:41:43.240Z,-5.34
2022-12-17T08:44:31.687Z,-5.45
2022-12-17T08:47:17.239Z,-5.21
2022-12-17T08:50:02.899Z,-5.57
2022-12-17T08:52:49.985Z,-5.65
2022-12-17T08:55:35.737Z,-5.37
2022-12-17T08:58:21.350Z,-5.48
2022-12-17T09:01:09.241Z,-5.34
2022-12-17T09:03:54.871Z,-5.62
2022-12-17T09:06:40.435Z,-5.54
2022-12-17T09:09:27.215Z,-5.10
2022-12-17T09:12:12.731Z,-4.94
2022-12-17T09:15:00.411Z,-5.22
2022-12-17T09:17:54.149Z,-4.84
2022-12-17T09:20:54.256Z,-4.75
2022-12-17T09:23:42.266Z,-5.13
2022-12-17T09:26:28.922Z,-5.18
2022-12-17T09:29:14.967Z,-4.83
2022-12-17T09:32:00.727Z,-4.91
2022-12-17T09:34:46.145Z,-4.61
2022-12-17T09:37:31.712Z,-4.93
2022-12-17T09:40:17.061Z,-4.58
2022-12-17T09:43:07.938Z,-4.86
2022-12-17T09:45:56.068Z,-4.76
2022-12-17T09:48:44.332Z,-4.16
2022-12-17T09:51:38.102Z,-4.36
2022-12-17T09:54:25.397Z,-4.89
2022-12-17T09:57:10.964Z,-4.95
2022-12-17T09:59:58.208Z,-5.21
2022-12-17T10:02:45.199Z,-4.88
2022-12-17T10:05:32.961Z,-4.52
2022-12-17T10:08:18.123Z,-4.36
2022-12-17T10:11:01.234Z,-4.70
2022-12-17T10:13:46.854Z,-4.27
2022-12-17T10:16:38.722Z,-3.89
2022-12-17T10:19:24.961Z,-4.09
2022-12-17T10:22:10.641Z,-4.34
2022-12-17T10:25:02.446Z,-4.58
2022-12-17T10:27:48.177Z,-4.22
2022-12-17T10:30:34.880Z,-3.98
2022-12-17T10:33:25.206Z,-3.82
2022-12-17T10:36:10.952Z,-4.26
2022-12-17T10:38:56.631Z,-4.68
2022-12-17T10:41:45.821Z,-5.30
2022-12-17T10:44:41.564Z,-4.48
2022-12-17T10:47:29.750Z,-4.96
2022-12-17T10:50:16.954Z,-4.14
2022-12-17T10:53:03.768Z,-4.01
2022-12-17T10:55:50.110Z,-4.68
2022-12-17T10:58:39.683Z,-4.35
2022-12-17T11:01:25.993Z,-4.82
2022-12-17T11:04:12.319Z,-4.99
2022-12-17T11:07:00.265Z,-4.22
2022-12-17T11:09:50.777Z,-5.12
2022-12-17T11:12:38.421Z,-4.82
2022-12-17T11:15:33.697Z,-4.48
2022-12-17T11:18:20.172Z,-4.76
2022-12-17T11:21:09.069Z,-4.24
2022-12-17T11:23:58.609Z,-4.12
2022-12-17T11:26:45.189Z,-3.30
2022-12-17T11:29:31.085Z,-4.89
2022-12-17T11:32:24.173Z,-4.59
2022-12-17T11:35:25.505Z,-4.04
2022-12-17T11:38:22.516Z,-3.70
2022-12-17T11:41:14.143Z,-3.82
2022-12-17T11:44:08.198Z,-3.74
2022-12-17T11:47:02.855Z,-3.88
2022-12-17T11:50:00.594Z,-3.48
2022-12-17T11:52:52.930Z,-2.97
2022-12-17T11:55:41.505Z,-3.64
2022-12-17T11:58:33.723Z,-3.74
2022-12-17T12:01:25.006Z,-4.38
2022-12-17T12:04:16.143Z,-4.63
2022-12-17T12:07:07.386Z,-4.41
2022-12-17T12:09:58.421Z,-4.46
2022-12-17T12:12:52.883Z,-3.33
2022-12-17T12:15:43.907Z,-4.48
2022-12-17T12:18:37.020Z,-3.94
2022-12-17T12:21:42.957Z,-4.44
2022-12-17T12:24:36.283Z,-4.81
2022-12-17T12:27:27.916Z,-4.31
2022-12-17T12:30:17.847Z,-4.53
2022-12-17T12:33:15.206Z,-3.74
2022-12-17T12:36:01.108Z,-3.47
2022-12-17T12:38:49.565Z,-4.06
2022-12-17T12:41:38.680Z,-4.04
2022-12-17T12:44:32.387Z,-4.22
2022-12-17T12:47:19.571Z,-4.24
2022-12-17T12:50:13.139Z,-4.44
2022-12-17T12:52:59.689Z,-4.31
2022-12-17T12:55:55.076Z,-4.45
2022-12-17T12:58:44.894Z,-4.44
2022-12-17T13:01:30.824Z,-4.03
2022-12-17T13:04:17.791Z,-3.58
2022-12-17T13:06:48.952Z,-3.70
2022-12-17T13:09:34.458Z,-4.08
2022-12-17T13:12:33.040Z,-4.18
2022-12-17T13:15:14.774Z,-3.97
2022-12-17T13:17:46.015Z,-3.48
2022-12-17T13:20:25.876Z,-3.96
2022-12-17T13:23:06.638Z,-4.11
2022-12-17T13:25:34.900Z,-4.09
2022-12-17T13:28:02.959Z,-4.04
2022-12-17T13:30:33.040Z,-4.39
2022-12-17T13:33:08.007Z,-4.40
2022-12-17T13:35:40.977Z,-4.44
2022-12-17T13:38:15.670Z,-4.60
2022-12-17T13:40:45.218Z,-4.70
2022-12-17T13:43:20.410Z,-4.52
2022-12-17T13:45:48.667Z,-4.74
2022-12-17T13:48:21.600Z,-4.52
2022-12-17T13:50:56.242Z,-4.47
2022-12-17T13:53:25.736Z,-4.64
2022-12-17T13:55:55.358Z,-4.81
2022-12-17T13:58:24.596Z,-4.94
2022-12-17T14:00:52.928Z,-4.65
2022-12-17T14:03:43.160Z,-4.73
2022-12-17T14:06:12.737Z,-4.91
2022-12-17T14:08:42.692Z,-5.00
2022-12-17T14:11:30.253Z,-5.00
2022-12-17T14:13:58.747Z,-4.99
2022-12-17T14:16:26.940Z,-5.15
2022-12-17T14:18:56.994Z,-5.15
2022-12-17T14:21:26.193Z,-5.15
2022-12-17T14:23:56.246Z,-5.17
2022-12-17T14:26:26.297Z,-5.30
2022-12-17T14:28:55.684Z,-5.37
2022-12-17T14:31:27.231Z,-5.47
2022-12-17T14:34:07.229Z,-5.66
2022-12-17T14:36:36.694Z,-5.40
2022-12-17T14:39:11.384Z,-5.34
2022-12-17T14:41:57.894Z,-5.52
2022-12-17T14:44:27.444Z,-5.65
2022-12-17T14:47:12.731Z,-5.66
2022-12-17T14:49:55.121Z,-5.67
2022-12-17T14:52:25.895Z,-5.81
2022-12-17T14:54:55.412Z,-6.06
2022-12-17T14:57:24.076Z,-5.90
2022-12-17T14:59:53.097Z,-5.80
2022-12-17T15:02:24.024Z,-6.13
2022-12-17T15:04:57.376Z,-6.21
2022-12-17T15:07:26.577Z,-6.16
2022-12-17T15:09:56.504Z,-6.32
2022-12-17T15:12:25.646Z,-6.33
2022-12-17T15:14:53.700Z,-6.39
2022-12-17T15:17:21.931Z,-6.46
2022-12-17T15:19:55.748Z,-6.49
2022-12-17T15:22:24.286Z,-6.53
2022-12-17T15:24:52.380Z,-6.57
2022-12-17T15:27:21.849Z,-6.51
2022-12-17T15:29:49.913Z,-6.72
2022-12-17T15:32:19.666Z,-6.47
2022-12-17T15:34:47.983Z,-6.69
2022-12-17T15:37:18.810Z,-6.47
2022-12-17T15:39:51.123Z,-6.42
2022-12-17T15:42:36.603Z,-6.40
2022-12-17T15:45:06.673Z,-6.56
2022-12-17T15:47:34.862Z,-6.58
2022-12-17T15:50:05.708Z,-6.59
2022-12-17T15:52:33.773Z,-6.61
2022-12-17T15:55:01.812Z,-6.49
2022-12-17T15:57:30.077Z,-6.15
2022-12-17T15:59:58.235Z,-6.11
2022-12-17T16:02:27.889Z,-6.31
2022-12-17T16:04:56.055Z,-6.56
2022-12-17T16:07:24.142Z,-6.60
2022-12-17T16:09:52.174Z,-6.75
2022-12-17T16:12:20.228Z,-6.72
2022-12-17T16:14:48.421Z,-6.47
2022-12-17T16:17:16.618Z,-6.52
2022-12-17T16:19:46.061Z,-6.61
2022-12-17T16:22:14.275Z,-6.64
2022-12-17T16:24:42.283Z,-6.00
2022-12-17T16:27:10.391Z,-6.62
2022-12-17T16:29:38.446Z,-6.59
2022-12-17T16:32:06.937Z,-6.48
2022-12-17T16:34:34.998Z,-6.39
2022-12-17T16:37:06.348Z,-6.08
2022-12-17T16:39:34.455Z,-6.98
2022-12-17T16:42:02.597Z,-6.61
2022-12-17T16:44:30.631Z,-6.52
2022-12-17T16:46:59.876Z,-6.87
2022-12-17T16:49:28.043Z,-6.86
2022-12-17T16:51:57.738Z,-7.01
2022-12-17T16:54:30.204Z,-6.95
2022-12-17T16:56:58.338Z,-6.91
2022-12-17T16:59:26.326Z,-6.96
2022-12-17T17:01:54.501Z,-6.79
2022-12-17T17:04:23.458Z,-6.27
2022-12-17T17:06:52.276Z,-6.94
2022-12-17T17:09:20.977Z,-6.85
2022-12-17T17:11:52.037Z,-6.98
2022-12-17T17:14:20.683Z,-6.98
2022-12-17T17:16:48.853Z,-7.01
2022-12-17T17:19:16.898Z,-7.06
2022-12-17T17:21:50.527Z,-6.99
2022-12-17T17:24:21.968Z,-6.84
2022-12-17T17:26:52.355Z,-6.83
2022-12-17T17:29:20.659Z,-6.91
2022-12-17T17:34:36.823Z,-7.25
2022-12-17T17:37:04.921Z,-7.46
2022-12-17T17:39:34.120Z,-7.36
2022-12-17T17:42:03.597Z,-7.44
2022-12-17T17:44:31.735Z,-7.37
2022-12-17T17:47:02.437Z,-7.28
2022-12-17T17:49:30.712Z,-7.24
2022-12-17T17:52:14.115Z,-7.09
2022-12-17T17:54:42.400Z,-7.43
2022-12-17T17:57:12.061Z,-7.18
2022-12-17T17:59:40.421Z,-7.36
2022-12-17T18:02:10.711Z,-7.54
2022-12-17T18:04:39.835Z,-7.66
2022-12-17T18:09:56.305Z,-7.55
2022-12-17T18:12:43.271Z,-7.48
2022-12-17T18:15:14.835Z,-7.39
2022-12-17T18:17:43.984Z,-7.38
2022-12-17T18:20:12.970Z,-7.45
2022-12-17T18:22:41.373Z,-7.19
2022-12-17T18:25:10.360Z,-7.41
2022-12-17T18:27:39.849Z,-7.97
2022-12-17T18:30:08.406Z,-7.70
2022-12-17T18:32:36.419Z,-7.86
2022-12-17T18:35:07.001Z,-7.83
2022-12-17T18:37:35.074Z,-7.82
2022-12-17T18:40:03.241Z,-7.86
2022-12-17T18:42:50.265Z,-7.80
2022-12-17T18:45:19.646Z,-7.66
2022-12-17T18:47:47.863Z,-6.90
2022-12-17T18:50:15.969Z,-8.11
2022-12-17T18:52:44.086Z,-8.35
2022-12-17T18:55:12.354Z,-8.39
2022-12-17T18:57:40.332Z,-8.40
2022-12-17T19:00:09.090Z,-8.19
2022-12-17T19:02:39.434Z,-8.35
2022-12-17T19:05:07.855Z,-7.91
2022-12-17T19:07:35.848Z,-8.51
2022-12-17T19:10:06.666Z,-8.70
2022-12-17T19:12:34.669Z,-9.11
2022-12-17T19:15:02.796Z,-8.82
2022-12-17T19:17:31.015Z,-8.92
2022-12-17T19:20:00.395Z,-9.03
2022-12-17T19:22:30.848Z,-8.80
2022-12-17T19:24:58.926Z,-8.52
2022-12-17T19:27:28.803Z,-8.26
2022-12-17T19:29:57.141Z,-8.46
2022-12-17T19:32:25.793Z,-8.14
2022-12-17T19:34:53.902Z,-8.84
2022-12-17T19:37:23.291Z,-9.24
2022-12-17T19:39:51.327Z,-9.24
2022-12-17T19:42:25.447Z,-9.25
2022-12-17T19:44:56.670Z,-9.26
2022-12-17T19:47:25.045Z,-9.18
2022-12-17T19:49:53.137Z,-9.35
2022-12-17T19:52:21.608Z,-9.15
2022-12-17T19:54:51.157Z,-9.06
2022-12-17T19:57:19.737Z,-9.16
2022-12-17T19:59:47.891Z,-9.43
2022-12-17T20:02:19.834Z,-9.37
2022-12-17T20:04:48.428Z,-9.13
2022-12-17T20:07:16.516Z,-9.15
2022-12-17T20:09:45.157Z,-9.33
2022-12-17T20:12:14.568Z,-9.28
2022-12-17T20:14:42.744Z,-9.61
2022-12-17T20:17:10.877Z,-9.65
2022-12-17T20:19:39.009Z,-9.41
2022-12-17T20:22:07.962Z,-9.17
2022-12-17T20:24:37.278Z,-9.60
2022-12-17T20:27:05.829Z,-9.83
2022-12-17T20:29:35.761Z,-9.83
2022-12-17T20:32:04.223Z,-9.73
2022-12-17T20:34:34.687Z,-9.61
2022-12-17T20:37:02.701Z,-10.00
2022-12-17T20:39:32.130Z,-9.89
2022-12-17T20:42:00.173Z,-9.76
2022-12-17T20:44:28.833Z,-9.81
2022-12-17T20:46:58.258Z,-9.35
2022-12-17T20:49:26.336Z,-9.85
2022-12-17T20:51:54.464Z,-9.92
2022-12-17T20:54:24.923Z,-9.93
2022-12-17T20:56:53.203Z,-9.73
2022-12-17T20:59:21.280Z,-9.81
2022-12-17T21:01:54.459Z,-10.29
2022-12-17T21:04:25.176Z,-10.19
2022-12-17T21:06:53.233Z,-9.98
2022-12-17T21:09:22.497Z,-9.69
2022-12-17T21:11:50.723Z,-9.75
2022-12-17T21:14:19.340Z,-10.14
2022-12-17T21:16:47.619Z,-9.79
2022-12-17T21:19:22.099Z,-10.38
2022-12-17T21:21:52.052Z,-10.24
2022-12-17T21:24:20.086Z,-10.06
2022-12-17T21:26:48.131Z,-10.09
2022-12-17T21:29:17.027Z,-10.27
2022-12-17T21:31:45.859Z,-10.49
2022-12-17T21:34:15.066Z,-10.60
2022-12-17T21:36:43.383Z,-10.43
2022-12-17T21:39:15.287Z,-10.63
2022-12-17T21:42:04.956Z,-10.50
2022-12-17T21:44:33.029Z,-10.40
2022-12-17T21:47:02.121Z,-10.07
2022-12-17T21:49:30.359Z,-9.89
2022-12-17T21:52:00.013Z,-9.54
2022-12-17T21:54:31.587Z,-9.44
2022-12-17T21:57:02.183Z,-9.41
2022-12-17T22:02:38.807Z,-9.64
2022-12-17T22:05:07.305Z,-9.51
2022-12-17T22:07:36.090Z,-9.43
2022-12-17T22:10:34.187Z,-9.03
2022-12-17T22:13:16.620Z,-9.68
2022-12-17T22:15:44.898Z,-10.27
2022-12-17T22:18:17.483Z,-10.51
2022-12-17T22:20:45.693Z,-10.44
2022-12-17T22:23:13.724Z,-10.44
2022-12-17T22:25:42.151Z,-10.56
2022-12-17T22:28:11.637Z,-10.66
2022-12-17T22:30:57.553Z,-10.66
2022-12-17T22:34:01.809Z,-10.87
2022-12-17T22:39:58.093Z,-10.62
2022-12-17T22:41:59.597Z,-10.26
2022-12-17T22:44:48.866Z,-10.33
2022-12-17T22:45:09.159Z,-10.55
2022-12-17T22:47:39.016Z,-10.69
2022-12-17T22:50:08.990Z,-10.51
2022-12-17T22:52:37.874Z,-10.25
2022-12-17T22:55:06.843Z,-9.90
2022-12-17T22:57:38.251Z,-10.40
2022-12-17T23:00:10.170Z,-10.87
2022-12-17T23:02:38.340Z,-10.28
2022-12-17T23:05:08.219Z,-9.99
2022-12-17T23:07:36.395Z,-10.20
2022-12-17T23:10:05.313Z,-9.98
2022-12-17T23:12:52.389Z,-9.97
2022-12-17T23:15:22.216Z,-9.72
2022-12-17T23:17:51.314Z,-9.33
2022-12-17T23:20:21.254Z,-9.41
2022-12-17T23:22:51.807Z,-10.09
2022-12-17T23:25:19.977Z,-10.60
2022-12-17T23:27:48.156Z,-10.46
2022-12-17T23:30:17.385Z,-10.49
2022-12-17T23:32:45.649Z,-10.55
2022-12-17T23:35:14.015Z,-10.84
2022-12-17T23:37:43.807Z,-10.71
2022-12-17T23:40:13.172Z,-11.02
2022-12-17T23:42:41.281Z,-11.35
2022-12-17T23:45:11.392Z,-11.40
2022-12-17T23:47:40.049Z,-11.49
2022-12-17T23:50:09.507Z,-11.14
2022-12-17T23:52:38.046Z,-11.42
2022-12-17T23:55:11.530Z,-11.59
2022-12-17T23:57:40.274Z,-11.59
